Time;durP1;ratioP1;P1;durP2;ratioP2;P2;SDS_P1;SDS_P2;PMS_P1;PMS_P2;Temp;Humidity;BMP_temperature;BMP_pressure;BME280_temperature;BME280_humidity;BME280_pressure;Samples;Min_cycle;Max_cycle;Signal;HPM_P1;HPM_P2
2022/12/10 00:00:35;;;;;;;65.38;38.92;;;;;;;;;;5043208;28;20720;-67
2022/12/10 00:03:01;;;;;;;63.88;40.85;;;;;;;;;;5043059;28;20025;-67
2022/12/10 00:05:26;;;;;;;61.55;41.53;;;;;;;;;;5043314;28;20058;-67
2022/12/10 00:07:51;;;;;;;62.53;41.38;;;;;;;;;;5041851;28;20102;-67
2022/12/10 00:10:17;;;;;;;63.45;40.10;;;;;;;;;;5040381;28;20024;-67
2022/12/10 00:12:42;;;;;;;62.63;40.10;;;;;;;;;;5034808;28;20472;-67
2022/12/10 00:15:07;;;;;;;67.95;42.75;;;;;;;;;;5038460;28;20090;-67
2022/12/10 00:17:33;;;;;;;64.78;40.53;;;;;;;;;;5044386;28;20024;-67
2022/12/10 00:19:58;;;;;;;67.38;41.80;;;;;;;;;;5037280;28;20034;-67
2022/12/10 00:22:23;;;;;;;69.10;44.00;;;;;;;;;;5048521;28;20025;-67
2022/12/10 00:24:48;;;;;;;75.43;44.75;;;;;;;;;;5050212;28;20025;-67
2022/12/10 00:27:14;;;;;;;63.92;42.10;;;;;;;;;;5037532;28;20057;-67
2022/12/10 00:29:39;;;;;;;63.90;40.20;;;;;;;;;;5033798;28;20408;-67
2022/12/10 00:32:05;;;;;;;68.43;43.13;;;;;;;;;;5034285;28;20128;-67
2022/12/10 00:34:31;;;;;;;63.83;40.33;;;;;;;;;;5038863;28;20602;-67
2022/12/10 00:36:56;;;;;;;68.25;41.80;;;;;;;;;;5038578;28;20025;-67
2022/12/10 00:39:21;;;;;;;70.13;41.95;;;;;;;;;;5033216;28;20107;-67
2022/12/10 00:41:46;;;;;;;68.50;43.03;;;;;;;;;;5036266;28;20024;-67
2022/12/10 00:44:12;;;;;;;64.20;41.35;;;;;;;;;;5036464;28;20020;-67
2022/12/10 00:46:38;;;;;;;69.28;41.67;;;;;;;;;;5026905;28;20036;-67
2022/12/10 00:49:03;;;;;;;64.68;42.85;;;;;;;;;;5047092;28;20032;-67
2022/12/10 00:51:28;;;;;;;73.10;43.60;;;;;;;;;;5057371;28;20100;-67
2022/12/10 00:53:54;;;;;;;66.40;43.08;;;;;;;;;;5047547;28;20471;-67
2022/12/10 00:56:21;;;;;;;63.55;40.30;;;;;;;;;;5047059;28;20040;-67
2022/12/10 00:58:47;;;;;;;69.10;42.00;;;;;;;;;;5046533;28;20025;-67
2022/12/10 01:01:12;;;;;;;73.45;43.67;;;;;;;;;;5044183;28;20027;-67
2022/12/10 01:03:38;;;;;;;69.93;42.10;;;;;;;;;;5044785;28;20017;-68
2022/12/10 01:06:17;;;;;;;70.65;43.95;;;;;;;;;;5044287;28;20033;-67
2022/12/10 01:08:44;;;;;;;61.08;40.60;;;;;;;;;;5038759;28;20332;-67
2022/12/10 01:11:10;;;;;;;74.25;42.63;;;;;;;;;;5048150;28;20032;-67
2022/12/10 01:13:35;;;;;;;72.82;42.75;;;;;;;;;;5048075;28;20391;-67
2022/12/10 01:16:02;;;;;;;73.00;42.08;;;;;;;;;;5044734;28;20021;-68
2022/12/10 01:18:27;;;;;;;70.90;43.25;;;;;;;;;;5049629;28;20761;-67
2022/12/10 01:20:52;;;;;;;77.18;43.33;;;;;;;;;;5035526;28;20064;-67
2022/12/10 01:23:18;;;;;;;80.63;43.63;;;;;;;;;;5030111;28;20052;-67
2022/12/10 01:25:43;;;;;;;67.05;43.55;;;;;;;;;;5045255;28;20024;-68
2022/12/10 01:28:08;;;;;;;82.55;45.60;;;;;;;;;;5048402;28;20029;-67
2022/12/10 01:30:33;;;;;;;72.25;45.60;;;;;;;;;;5033214;28;20026;-67
2022/12/10 01:32:58;;;;;;;74.47;44.72;;;;;;;;;;5049008;28;20025;-67
2022/12/10 01:35:24;;;;;;;69.68;44.53;;;;;;;;;;5062102;28;20052;-67
2022/12/10 01:37:49;;;;;;;75.00;42.13;;;;;;;;;;5048663;28;20067;-67
2022/12/10 01:40:14;;;;;;;74.32;46.92;;;;;;;;;;5048145;28;20021;-67
2022/12/10 01:42:40;;;;;;;68.93;44.25;;;;;;;;;;5031167;28;20223;-67
2022/12/10 01:45:08;;;;;;;76.90;47.28;;;;;;;;;;5030207;28;20487;-67
2022/12/10 01:47:33;;;;;;;81.00;48.28;;;;;;;;;;5029894;28;20021;-67
2022/12/10 01:50:00;;;;;;;79.10;46.00;;;;;;;;;;5030639;28;20071;-67
2022/12/10 01:52:26;;;;;;;80.43;48.13;;;;;;;;;;5030532;28;20033;-67
2022/12/10 01:54:51;;;;;;;74.88;47.15;;;;;;;;;;5031156;28;20025;-68
2022/12/10 01:57:23;;;;;;;84.85;49.30;;;;;;;;;;5029887;28;20014;-67
2022/12/10 01:59:57;;;;;;;83.20;51.13;;;;;;;;;;5031413;28;20021;-68
2022/12/10 02:02:42;;;;;;;86.28;51.35;;;;;;;;;;5030797;28;20010;-68
2022/12/10 02:05:24;;;;;;;95.82;51.63;;;;;;;;;;5028952;28;20013;-68
2022/12/10 02:08:12;;;;;;;89.88;51.00;;;;;;;;;;5030690;28;20108;-68
2022/12/10 02:10:50;;;;;;;92.03;54.38;;;;;;;;;;5031786;28;20180;-68
2022/12/10 02:13:38;;;;;;;85.25;48.22;;;;;;;;;;5041037;28;20052;-68
2022/12/10 02:16:26;;;;;;;89.72;48.95;;;;;;;;;;5042113;28;20033;-68
2022/12/10 02:18:56;;;;;;;82.32;48.15;;;;;;;;;;5041407;28;20079;-68
2022/12/10 02:21:36;;;;;;;78.03;46.22;;;;;;;;;;5033320;28;20029;-68
2022/12/10 02:24:04;;;;;;;82.32;49.05;;;;;;;;;;5034168;28;20060;-68
2022/12/10 02:26:29;;;;;;;78.72;48.67;;;;;;;;;;5048747;28;20649;-68
2022/12/10 02:29:12;;;;;;;82.18;50.22;;;;;;;;;;5048440;28;20017;-67
2022/12/10 02:31:39;;;;;;;79.65;47.15;;;;;;;;;;5046770;28;20465;-67
2022/12/10 02:34:06;;;;;;;82.78;48.78;;;;;;;;;;5049194;28;20087;-67
2022/12/10 02:36:34;;;;;;;76.63;46.50;;;;;;;;;;5051803;28;20021;-67
2022/12/10 02:39:01;;;;;;;85.75;50.10;;;;;;;;;;5051839;28;20115;-68
2022/12/10 02:41:30;;;;;;;75.75;50.22;;;;;;;;;;5058295;28;20074;-67
2022/12/10 02:43:56;;;;;;;75.50;48.03;;;;;;;;;;5049145;28;20021;-67
2022/12/10 02:46:23;;;;;;;77.03;47.20;;;;;;;;;;5046800;28;20029;-67
2022/12/10 02:48:49;;;;;;;79.07;46.47;;;;;;;;;;5042845;28;20048;-67
2022/12/10 02:51:14;;;;;;;78.78;45.17;;;;;;;;;;5040924;28;20065;-67
2022/12/10 02:53:43;;;;;;;85.55;47.35;;;;;;;;;;5034759;28;20057;-67
2022/12/10 02:56:22;;;;;;;72.85;46.08;;;;;;;;;;5037883;28;20021;-67
2022/12/10 02:59:12;;;;;;;66.22;43.70;;;;;;;;;;5034941;28;20033;-67
2022/12/10 03:01:38;;;;;;;74.13;44.97;;;;;;;;;;5041853;28;20021;-68
2022/12/10 03:04:10;;;;;;;75.30;44.33;;;;;;;;;;5043242;28;20029;-67
2022/12/10 03:06:38;;;;;;;70.32;45.38;;;;;;;;;;5043139;28;20430;-67
2022/12/10 03:09:12;;;;;;;64.50;44.65;;;;;;;;;;5033148;28;20551;-67
2022/12/10 03:11:39;;;;;;;76.30;46.65;;;;;;;;;;5035464;28;20482;-68
2022/12/10 03:14:12;;;;;;;74.03;45.03;;;;;;;;;;5034752;28;20476;-67
2022/12/10 03:16:46;;;;;;;81.18;46.05;;;;;;;;;;5035865;28;20021;-67
2022/12/10 03:19:13;;;;;;;80.20;45.67;;;;;;;;;;5032249;28;20060;-67
2022/12/10 03:21:40;;;;;;;80.18;47.38;;;;;;;;;;5050810;28;20032;-68
2022/12/10 03:24:06;;;;;;;73.53;46.25;;;;;;;;;;5052343;28;20028;-68
2022/12/10 03:26:32;;;;;;;82.93;49.60;;;;;;;;;;5050533;28;20384;-68
2022/12/10 03:29:01;;;;;;;75.50;49.70;;;;;;;;;;5052423;28;20107;-68
2022/12/10 03:31:27;;;;;;;86.32;49.45;;;;;;;;;;5051694;28;20028;-68
2022/12/10 03:33:54;;;;;;;87.13;48.92;;;;;;;;;;5050650;28;20502;-68
2022/12/10 03:36:20;;;;;;;82.15;50.65;;;;;;;;;;5050175;28;20013;-68
2022/12/10 03:38:45;;;;;;;84.35;50.20;;;;;;;;;;5040199;28;20029;-68
2022/12/10 03:41:10;;;;;;;80.75;49.47;;;;;;;;;;5051567;28;20344;-68
2022/12/10 03:43:36;;;;;;;78.65;50.05;;;;;;;;;;5051257;28;20021;-67
2022/12/10 03:46:01;;;;;;;78.90;47.42;;;;;;;;;;5051225;28;20029;-67
2022/12/10 03:48:27;;;;;;;80.22;45.53;;;;;;;;;;5052165;28;20021;-67
2022/12/10 03:50:52;;;;;;;68.93;44.50;;;;;;;;;;5033272;28;20029;-67
2022/12/10 03:53:17;;;;;;;62.83;41.17;;;;;;;;;;5045162;28;20029;-67
2022/12/10 03:55:43;;;;;;;75.22;45.00;;;;;;;;;;5051368;28;20029;-67
2022/12/10 03:58:08;;;;;;;72.90;44.13;;;;;;;;;;5051178;28;20021;-67
2022/12/10 04:00:33;;;;;;;71.57;43.17;;;;;;;;;;5049114;28;20847;-67
2022/12/10 04:02:58;;;;;;;80.65;47.65;;;;;;;;;;5050727;28;20021;-67
2022/12/10 04:05:24;;;;;;;78.95;48.35;;;;;;;;;;5047267;28;20039;-67
2022/12/10 04:07:49;;;;;;;84.20;50.00;;;;;;;;;;5062967;28;20024;-67
2022/12/10 04:10:14;;;;;;;79.68;47.03;;;;;;;;;;5053972;28;20021;-68
2022/12/10 04:12:39;;;;;;;77.53;45.80;;;;;;;;;;5051780;28;20104;-68
2022/12/10 04:17:49;;;;;;;72.68;44.63;;;;;;;;;;5051970;28;20040;-68
2022/12/10 04:28:26;;;;;;;77.43;46.50;;;;;;;;;;5051588;28;20032;-67
2022/12/10 04:30:51;;;;;;;80.10;47.60;;;;;;;;;;5053557;28;20021;-68
2022/12/10 04:33:16;;;;;;;81.95;46.00;;;;;;;;;;5062682;28;20058;-68
2022/12/10 04:35:41;;;;;;;81.35;47.97;;;;;;;;;;5047940;28;20446;-68
2022/12/10 04:38:07;;;;;;;77.28;48.47;;;;;;;;;;5043570;28;20032;-67
2022/12/10 04:40:32;;;;;;;79.28;47.25;;;;;;;;;;5036554;28;20846;-68
2022/12/10 04:42:57;;;;;;;81.15;50.10;;;;;;;;;;5038595;28;20067;-68
2022/12/10 04:45:22;;;;;;;86.45;49.10;;;;;;;;;;5051050;28;20082;-68
2022/12/10 04:47:48;;;;;;;70.25;45.40;;;;;;;;;;5051581;28;20024;-68
2022/12/10 04:50:13;;;;;;;81.80;49.17;;;;;;;;;;5040629;28;20359;-68
2022/12/10 04:52:38;;;;;;;90.15;50.50;;;;;;;;;;5031882;28;20252;-68
2022/12/10 04:55:03;;;;;;;81.28;48.50;;;;;;;;;;5032516;28;20083;-68
2022/12/10 04:57:29;;;;;;;79.40;49.38;;;;;;;;;;5032997;28;20046;-68
2022/12/10 04:59:54;;;;;;;77.53;46.88;;;;;;;;;;5031899;28;20036;-68
2022/12/10 05:02:19;;;;;;;81.25;48.83;;;;;;;;;;5033755;28;20013;-68
2022/12/10 05:04:44;;;;;;;75.47;48.13;;;;;;;;;;5032695;28;20036;-68
2022/12/10 05:07:10;;;;;;;72.82;47.10;;;;;;;;;;5033946;28;20033;-68
2022/12/10 05:09:35;;;;;;;82.82;47.47;;;;;;;;;;5033118;28;20394;-68
2022/12/10 05:12:00;;;;;;;73.13;48.33;;;;;;;;;;5045307;28;20036;-68
2022/12/10 05:14:25;;;;;;;78.97;47.25;;;;;;;;;;5032508;28;20029;-67
2022/12/10 05:16:51;;;;;;;75.10;48.45;;;;;;;;;;5044174;28;20017;-77
2022/12/10 05:19:19;;;;;;;78.20;48.25;;;;;;;;;;5041324;28;20021;-67
2022/12/10 05:24:28;;;;;;;85.43;50.00;;;;;;;;;;5036421;28;21150;-68
2022/12/10 05:26:53;;;;;;;71.03;44.17;;;;;;;;;;5034079;28;20132;-68
2022/12/10 05:29:19;;;;;;;84.80;46.75;;;;;;;;;;5036744;28;20108;-67
2022/12/10 05:31:44;;;;;;;75.00;46.55;;;;;;;;;;5033820;28;20029;-68
2022/12/10 05:34:10;;;;;;;74.68;46.42;;;;;;;;;;5033654;28;20061;-68
2022/12/10 05:36:35;;;;;;;78.40;47.22;;;;;;;;;;5039008;28;20017;-67
2022/12/10 05:39:00;;;;;;;78.38;49.30;;;;;;;;;;5035158;28;20037;-67
2022/12/10 05:41:27;;;;;;;74.78;47.50;;;;;;;;;;5035998;28;20024;-67
2022/12/10 05:43:55;;;;;;;80.72;48.38;;;;;;;;;;5033192;28;20026;-67
2022/12/10 05:46:22;;;;;;;75.45;48.40;;;;;;;;;;5031344;28;20033;-68
2022/12/10 05:48:48;;;;;;;82.35;47.30;;;;;;;;;;5034536;28;20067;-68
2022/12/10 05:51:14;;;;;;;77.47;47.33;;;;;;;;;;5036909;28;20101;-67
2022/12/10 05:53:40;;;;;;;85.65;49.08;;;;;;;;;;5050065;28;20032;-68
2022/12/10 05:56:06;;;;;;;75.32;46.33;;;;;;;;;;5043053;28;20021;-67
2022/12/10 05:58:32;;;;;;;78.90;46.60;;;;;;;;;;5049937;28;20056;-67
2022/12/10 06:00:58;;;;;;;70.35;45.95;;;;;;;;;;5042437;28;20123;-66
2022/12/10 06:03:23;;;;;;;72.43;45.20;;;;;;;;;;5041471;28;20033;-67
2022/12/10 06:05:48;;;;;;;75.10;45.60;;;;;;;;;;5049536;28;20013;-67
2022/12/10 06:08:14;;;;;;;81.75;47.95;;;;;;;;;;5045911;28;20123;-68
2022/12/10 06:10:39;;;;;;;86.28;50.00;;;;;;;;;;5042083;28;20018;-67
2022/12/10 06:13:05;;;;;;;86.47;49.08;;;;;;;;;;5046731;28;20120;-67
2022/12/10 06:15:30;;;;;;;83.93;49.20;;;;;;;;;;5047003;28;20021;-67
2022/12/10 06:17:55;;;;;;;83.20;50.55;;;;;;;;;;5046710;28;20061;-68
2022/12/10 06:20:21;;;;;;;87.90;55.55;;;;;;;;;;5036928;28;20383;-67
2022/12/10 06:22:46;;;;;;;90.13;53.50;;;;;;;;;;5036885;28;20071;-67
2022/12/10 06:25:11;;;;;;;90.90;52.20;;;;;;;;;;5038569;28;20018;-67
2022/12/10 06:27:37;;;;;;;87.72;55.75;;;;;;;;;;5040561;28;20376;-67
2022/12/10 06:30:02;;;;;;;94.40;53.67;;;;;;;;;;5043685;28;20017;-66
2022/12/10 06:32:27;;;;;;;92.43;54.08;;;;;;;;;;5047416;28;20031;-66
2022/12/10 06:34:53;;;;;;;87.53;54.47;;;;;;;;;;5042190;28;20029;-68
2022/12/10 06:37:18;;;;;;;93.25;49.83;;;;;;;;;;5052213;28;20502;-68
2022/12/10 06:39:44;;;;;;;80.85;50.80;;;;;;;;;;5041097;28;20064;-68
2022/12/10 06:42:09;;;;;;;86.85;50.60;;;;;;;;;;5041715;28;20013;-68
2022/12/10 06:44:34;;;;;;;85.03;49.78;;;;;;;;;;5041228;28;20055;-68
2022/12/10 06:46:59;;;;;;;84.70;50.85;;;;;;;;;;5066474;28;20069;-68
2022/12/10 06:49:25;;;;;;;85.55;50.60;;;;;;;;;;5046519;28;20056;-68
2022/12/10 06:51:50;;;;;;;77.93;48.25;;;;;;;;;;5033165;28;20017;-68
2022/12/10 06:54:15;;;;;;;80.90;50.35;;;;;;;;;;5033958;28;20094;-67
2022/12/10 06:56:40;;;;;;;84.18;50.60;;;;;;;;;;5033823;28;20107;-68
2022/12/10 06:59:06;;;;;;;73.32;46.85;;;;;;;;;;5048688;28;20021;-67
2022/12/10 07:01:31;;;;;;;96.47;52.45;;;;;;;;;;5037802;28;20078;-69
2022/12/10 07:03:57;;;;;;;78.95;50.53;;;;;;;;;;5022775;28;20365;-70
2022/12/10 07:06:23;;;;;;;94.53;49.42;;;;;;;;;;5020150;28;20087;-67
2022/12/10 07:08:48;;;;;;;86.53;50.70;;;;;;;;;;5020701;28;20544;-67
2022/12/10 07:11:14;;;;;;;80.38;48.78;;;;;;;;;;5031928;28;20020;-67
2022/12/10 07:13:40;;;;;;;78.03;49.20;;;;;;;;;;5039456;28;20041;-67
2022/12/10 07:16:12;;;;;;;82.82;48.33;;;;;;;;;;5028553;28;20436;-67
2022/12/10 07:18:38;;;;;;;82.53;48.50;;;;;;;;;;5043439;28;20026;-67
2022/12/10 07:21:12;;;;;;;90.22;51.50;;;;;;;;;;5041391;28;20033;-67
2022/12/10 07:23:37;;;;;;;;;;;;;;;;;;5039325;28;20035;-67
2022/12/10 07:26:02;;;;;;;80.83;47.33;;;;;;;;;;5039789;28;20274;-67
2022/12/10 07:28:27;;;;;;;86.78;49.47;;;;;;;;;;5040214;28;20017;-67
2022/12/10 07:30:59;;;;;;;88.93;51.20;;;;;;;;;;5032643;28;20032;-67
2022/12/10 07:33:24;;;;;;;92.90;50.90;;;;;;;;;;5027238;28;20446;-68
2022/12/10 07:35:50;;;;;;;86.43;52.00;;;;;;;;;;5026295;28;20251;-68
2022/12/10 07:38:15;;;;;;;84.75;50.58;;;;;;;;;;5034057;28;20380;-68
2022/12/10 07:40:40;;;;;;;81.38;50.95;;;;;;;;;;5028553;28;20052;-67
2022/12/10 07:43:05;;;;;;;80.30;47.75;;;;;;;;;;5025861;28;20024;-68
2022/12/10 07:45:31;;;;;;;91.97;51.45;;;;;;;;;;5032033;28;20032;-68
2022/12/10 07:47:57;;;;;;;80.25;46.72;;;;;;;;;;5031818;28;20048;-67
2022/12/10 07:50:22;;;;;;;95.60;53.13;;;;;;;;;;5027658;28;20566;-67
2022/12/10 07:52:47;;;;;;;85.47;48.47;;;;;;;;;;5029309;28;20044;-67
2022/12/10 07:55:13;;;;;;;85.25;50.08;;;;;;;;;;5025672;28;20838;-68
2022/12/10 07:57:38;;;;;;;90.25;50.17;;;;;;;;;;5037351;28;20037;-67
2022/12/10 08:00:04;;;;;;;87.50;47.63;;;;;;;;;;5027180;28;20016;-67
2022/12/10 08:02:29;;;;;;;94.50;51.67;;;;;;;;;;5022413;28;20013;-67
2022/12/10 08:04:54;;;;;;;88.57;49.33;;;;;;;;;;5009665;28;20017;-67
2022/12/10 08:07:20;;;;;;;84.18;49.28;;;;;;;;;;5005113;28;20075;-67
2022/12/10 08:09:45;;;;;;;82.00;48.03;;;;;;;;;;5012117;28;20020;-68
2022/12/10 08:12:10;;;;;;;94.88;52.28;;;;;;;;;;5022503;28;20028;-67
2022/12/10 08:14:35;;;;;;;88.22;48.38;;;;;;;;;;5014959;28;20029;-68
2022/12/10 08:17:00;;;;;;;80.38;48.45;;;;;;;;;;5016545;28;20040;-67
2022/12/10 08:19:26;;;;;;;85.60;49.78;;;;;;;;;;5014430;28;20031;-68
2022/12/10 08:21:52;;;;;;;88.68;50.10;;;;;;;;;;5015576;28;20789;-68
2022/12/10 08:24:17;;;;;;;88.88;47.60;;;;;;;;;;5013595;28;20032;-68
2022/12/10 08:26:42;;;;;;;96.60;50.40;;;;;;;;;;5010824;28;20017;-68
2022/12/10 08:29:08;;;;;;;83.82;49.65;;;;;;;;;;5010860;28;20882;-68
2022/12/10 08:31:33;;;;;;;80.53;44.53;;;;;;;;;;5009755;28;20075;-68
2022/12/10 08:33:58;;;;;;;86.10;47.95;;;;;;;;;;5020965;28;20033;-69
2022/12/10 08:36:23;;;;;;;88.97;49.65;;;;;;;;;;5014113;28;20918;-68
2022/12/10 08:38:49;;;;;;;85.30;48.13;;;;;;;;;;5011497;28;20139;-68
2022/12/10 08:41:16;;;;;;;80.00;46.90;;;;;;;;;;5012352;28;20032;-68
2022/12/10 08:43:42;;;;;;;83.45;47.90;;;;;;;;;;5013242;28;20017;-68
2022/12/10 08:46:07;;;;;;;90.90;50.42;;;;;;;;;;5014343;28;20121;-68
2022/12/10 08:48:33;;;;;;;80.60;46.45;;;;;;;;;;5002522;28;20025;-68
2022/12/10 08:50:59;;;;;;;82.00;48.22;;;;;;;;;;5026286;28;20032;-68
2022/12/10 08:53:24;;;;;;;82.45;46.40;;;;;;;;;;5034205;28;20040;-68
2022/12/10 08:55:53;;;;;;;83.28;47.30;;;;;;;;;;5032758;28;20048;-68
2022/12/10 08:58:18;;;;;;;84.78;49.13;;;;;;;;;;5028494;28;20027;-68
2022/12/10 09:00:44;;;;;;;88.35;51.28;;;;;;;;;;5036222;28;20029;-68
2022/12/10 09:03:09;;;;;;;83.15;47.67;;;;;;;;;;5032350;28;20017;-68
2022/12/10 09:05:34;;;;;;;80.68;47.78;;;;;;;;;;5030424;28;20443;-68
2022/12/10 09:08:00;;;;;;;82.00;46.50;;;;;;;;;;5031423;28;20090;-68
2022/12/10 09:10:25;;;;;;;91.68;48.47;;;;;;;;;;5038731;28;20929;-68
2022/12/10 09:12:50;;;;;;;90.97;48.90;;;;;;;;;;5030251;28;20090;-68
2022/12/10 09:15:15;;;;;;;79.75;46.75;;;;;;;;;;5035248;28;20028;-68
2022/12/10 09:17:41;;;;;;;90.13;51.38;;;;;;;;;;5039604;28;20035;-68
2022/12/10 09:20:06;;;;;;;82.03;47.05;;;;;;;;;;5030979;28;20814;-68
2022/12/10 09:22:32;;;;;;;88.78;48.20;;;;;;;;;;5027398;28;20108;-69
2022/12/10 09:24:57;;;;;;;86.10;48.90;;;;;;;;;;5046374;28;20130;-68
2022/12/10 09:27:22;;;;;;;81.50;44.13;;;;;;;;;;5036063;28;20028;-68
2022/12/10 09:29:48;;;;;;;83.47;45.67;;;;;;;;;;5037799;28;20719;-66
2022/12/10 09:32:13;;;;;;;89.32;47.88;;;;;;;;;;5056568;28;20190;-67
2022/12/10 09:34:38;;;;;;;93.15;47.72;;;;;;;;;;5033841;28;20037;-67
2022/12/10 09:37:03;;;;;;;78.93;45.70;;;;;;;;;;5039838;28;20037;-69
2022/12/10 09:39:29;;;;;;;80.35;45.50;;;;;;;;;;5044770;28;20028;-68
2022/12/10 09:41:54;;;;;;;81.05;47.10;;;;;;;;;;5046129;28;20811;-68
2022/12/10 09:44:31;;;;;;;81.53;46.70;;;;;;;;;;5048620;28;20091;-68
2022/12/10 09:46:59;;;;;;;78.88;45.50;;;;;;;;;;5049502;28;20029;-67
2022/12/10 09:49:33;;;;;;;75.13;44.70;;;;;;;;;;5043256;28;20533;-68
2022/12/10 09:52:00;;;;;;;83.93;45.15;;;;;;;;;;5030193;28;20148;-68
2022/12/10 09:54:31;;;;;;;74.85;45.03;;;;;;;;;;5021665;28;20056;-68
2022/12/10 09:56:57;;;;;;;80.75;46.80;;;;;;;;;;5031131;28;20036;-68
2022/12/10 09:59:25;;;;;;;78.05;46.13;;;;;;;;;;5036916;28;20021;-68
2022/12/10 10:02:00;;;;;;;80.35;46.63;;;;;;;;;;5041899;28;20048;-68
2022/12/10 10:04:25;;;;;;;84.25;43.88;;;;;;;;;;5037416;28;20794;-68
2022/12/10 10:06:51;;;;;;;81.18;44.17;;;;;;;;;;5033354;28;20043;-68
2022/12/10 10:09:17;;;;;;;75.43;43.42;;;;;;;;;;5038441;28;20028;-68
2022/12/10 10:11:42;;;;;;;80.63;46.33;;;;;;;;;;5032636;28;20032;-68
2022/12/10 10:14:13;;;;;;;73.50;42.42;;;;;;;;;;5034236;28;20028;-68
2022/12/10 10:16:47;;;;;;;81.03;43.80;;;;;;;;;;5043923;28;20021;-69
2022/12/10 10:19:17;;;;;;;71.68;44.33;;;;;;;;;;5034181;28;20077;-68
2022/12/10 10:21:44;;;;;;;72.68;44.00;;;;;;;;;;5035106;28;20033;-68
2022/12/10 10:24:14;;;;;;;77.57;45.45;;;;;;;;;;5041630;28;20400;-68
2022/12/10 10:26:39;;;;;;;74.10;45.35;;;;;;;;;;5040955;28;20039;-68
2022/12/10 10:29:10;;;;;;;67.10;42.78;;;;;;;;;;5032245;28;20462;-68
2022/12/10 10:31:38;;;;;;;75.88;45.17;;;;;;;;;;5036474;28;20052;-68
2022/12/10 10:34:05;;;;;;;64.20;41.40;;;;;;;;;;5033776;28;20025;-68
2022/12/10 10:36:31;;;;;;;84.10;45.30;;;;;;;;;;5031944;28;20014;-68
2022/12/10 10:38:57;;;;;;;78.07;44.35;;;;;;;;;;5039206;28;20029;-68
2022/12/10 10:41:25;;;;;;;70.20;44.83;;;;;;;;;;5025529;28;20045;-68
2022/12/10 10:43:54;;;;;;;77.32;42.75;;;;;;;;;;5033107;28;20095;-68
2022/12/10 10:46:23;;;;;;;69.75;42.67;;;;;;;;;;5028125;28;20024;-68
2022/12/10 10:48:48;;;;;;;68.65;40.33;;;;;;;;;;5038728;28;20040;-68
2022/12/10 10:51:18;;;;;;;63.20;38.92;;;;;;;;;;5031945;28;20217;-68
2022/12/10 10:53:54;;;;;;;73.05;42.13;;;;;;;;;;5031630;28;20041;-68
2022/12/10 10:56:23;;;;;;;71.80;42.38;;;;;;;;;;5024627;28;20083;-68
2022/12/10 10:58:52;;;;;;;75.15;43.55;;;;;;;;;;5020966;28;20091;-68
2022/12/10 11:01:17;;;;;;;68.35;41.45;;;;;;;;;;5040017;28;20044;-68
2022/12/10 11:03:47;;;;;;;79.40;43.83;;;;;;;;;;5042976;28;20459;-68
2022/12/10 11:06:12;;;;;;;76.13;42.53;;;;;;;;;;5031885;28;20194;-68
2022/12/10 11:08:39;;;;;;;82.90;44.40;;;;;;;;;;5033369;28;20029;-64
2022/12/10 11:11:06;;;;;;;68.63;40.85;;;;;;;;;;5031080;28;20539;-68
2022/12/10 11:13:33;;;;;;;73.90;43.72;;;;;;;;;;5037865;28;20094;-68
2022/12/10 11:16:10;;;;;;;79.60;44.08;;;;;;;;;;5043618;28;20138;-68
2022/12/10 11:18:37;;;;;;;69.35;40.83;;;;;;;;;;5037076;28;20032;-68
2022/12/10 11:21:06;;;;;;;75.40;43.80;;;;;;;;;;5048834;28;20029;-68
2022/12/10 11:23:38;;;;;;;73.32;43.60;;;;;;;;;;5041059;28;20831;-67
2022/12/10 11:26:12;;;;;;;73.93;43.33;;;;;;;;;;5036104;28;20033;-68
2022/12/10 11:28:37;;;;;;;;;;;;;;;;;;5035138;28;20492;-68
2022/12/10 11:31:22;;;;;;;77.03;42.23;;;;;;;;;;5036671;28;19912;-68
2022/12/10 11:33:57;;;;;;;68.78;40.40;;;;;;;;;;5042335;28;20291;-68
2022/12/10 11:36:22;;;;;;;69.20;44.33;;;;;;;;;;5036990;28;20078;-68
2022/12/10 11:38:51;;;;;;;84.88;43.35;;;;;;;;;;5042154;28;20403;-68
2022/12/10 11:41:30;;;;;;;71.88;41.25;;;;;;;;;;5039267;28;20029;-68
2022/12/10 11:44:08;;;;;;;68.10;40.85;;;;;;;;;;5032413;28;20087;-68
2022/12/10 11:46:36;;;;;;;78.13;42.42;;;;;;;;;;5033762;28;20029;-68
2022/12/10 11:49:01;;;;;;;73.03;41.30;;;;;;;;;;5036147;28;20103;-68
2022/12/10 11:51:32;;;;;;;65.40;42.22;;;;;;;;;;5036056;28;20158;-68
2022/12/10 11:54:06;;;;;;;69.53;39.05;;;;;;;;;;5028716;28;20617;-68
2022/12/10 11:56:37;;;;;;;71.35;39.75;;;;;;;;;;5031256;28;20131;-68
2022/12/10 11:59:14;;;;;;;64.60;38.78;;;;;;;;;;5037373;28;20025;-68
2022/12/10 12:02:02;;;;;;;67.55;39.58;;;;;;;;;;5034001;28;20028;-69
2022/12/10 12:04:54;;;;;;;72.47;40.42;;;;;;;;;;5031521;28;20021;-68
2022/12/10 12:07:26;;;;;;;70.50;40.72;;;;;;;;;;5028771;28;20768;-68
2022/12/10 12:10:04;;;;;;;69.43;40.40;;;;;;;;;;5037779;28;20017;-67
2022/12/10 12:12:29;;;;;;;73.50;40.58;;;;;;;;;;5051822;28;20067;-68
2022/12/10 12:14:56;;;;;;;78.28;42.40;;;;;;;;;;5051083;28;20044;-68
2022/12/10 12:17:33;;;;;;;84.03;42.58;;;;;;;;;;5051827;28;20048;-68
2022/12/10 12:20:00;;;;;;;70.38;40.97;;;;;;;;;;5052450;28;20025;-68
2022/12/10 12:22:28;;;;;;;60.97;39.60;;;;;;;;;;5052750;28;20013;-67
2022/12/10 12:24:56;;;;;;;72.50;43.28;;;;;;;;;;5041141;28;20024;-72
2022/12/10 12:27:27;;;;;;;73.40;41.83;;;;;;;;;;5056474;28;20115;-83
2022/12/10 12:30:11;;;;;;;81.78;43.03;;;;;;;;;;5050590;28;20017;-69
2022/12/10 12:32:36;;;;;;;69.88;41.25;;;;;;;;;;5051280;28;20021;-69
2022/12/10 12:35:05;;;;;;;73.53;43.23;;;;;;;;;;5049432;28;20486;-72
2022/12/10 12:37:40;;;;;;;63.10;41.58;;;;;;;;;;5050168;28;20276;-68
2022/12/10 12:40:14;;;;;;;76.95;42.30;;;;;;;;;;5042584;28;20111;-68
2022/12/10 12:42:40;;;;;;;;;;;;;;;;;;5052713;28;20076;-66
2022/12/10 12:45:11;;;;;;;59.30;38.38;;;;;;;;;;5052076;28;19927;-66
2022/12/10 12:47:55;;;;;;;73.38;40.97;;;;;;;;;;5045742;28;20070;-67
2022/12/10 12:50:38;;;;;;;81.65;44.45;;;;;;;;;;5051688;28;20025;-67
2022/12/10 12:53:07;;;;;;;69.40;39.05;;;;;;;;;;5051917;28;20475;-71
2022/12/10 12:55:51;;;;;;;62.60;39.08;;;;;;;;;;5051350;28;20017;-75
2022/12/10 12:58:46;;;;;;;75.95;42.97;;;;;;;;;;5046621;28;20476;-73
2022/12/10 13:01:11;;;;;;;;;;;;;;;;;;5026465;28;20048;-75
2022/12/10 13:03:39;;;;;;;66.35;40.13;;;;;;;;;;5042562;28;19905;-69
2022/12/10 13:06:22;;;;;;;61.95;37.35;;;;;;;;;;5046853;28;20103;-68
2022/12/10 13:09:06;;;;;;;72.90;40.13;;;;;;;;;;5045773;28;20079;-69
2022/12/10 13:11:32;;;;;;;71.20;40.92;;;;;;;;;;5041710;28;20014;-70
2022/12/10 13:14:11;;;;;;;69.57;39.42;;;;;;;;;;5043917;28;20025;-68
2022/12/10 13:16:46;;;;;;;73.55;42.15;;;;;;;;;;5045844;28;20020;-72
2022/12/10 13:19:13;;;;;;;72.82;42.30;;;;;;;;;;5039354;28;20029;-76
2022/12/10 13:21:56;;;;;;;73.88;39.40;;;;;;;;;;5032586;28;20013;-71
2022/12/10 13:24:33;;;;;;;75.38;40.75;;;;;;;;;;5038581;28;20033;-68
2022/12/10 13:27:24;;;;;;;63.70;38.25;;;;;;;;;;5033577;28;20472;-70
2022/12/10 13:29:56;;;;;;;67.85;37.95;;;;;;;;;;5038298;28;20056;-72
2022/12/10 13:32:22;;;;;;;77.78;41.42;;;;;;;;;;5034473;28;20499;-72
2022/12/10 13:35:08;;;;;;;67.55;41.50;;;;;;;;;;5047895;28;20046;-72
2022/12/10 13:37:36;;;;;;;70.38;39.85;;;;;;;;;;5051699;28;20102;-72
2022/12/10 13:40:07;;;;;;;69.18;40.28;;;;;;;;;;5042016;28;20039;-72
2022/12/10 13:45:21;;;;;;;72.20;41.97;;;;;;;;;;5045348;28;20055;-72
2022/12/10 13:47:48;;;;;;;80.38;38.33;;;;;;;;;;5050950;28;20028;-72
2022/12/10 13:50:16;;;;;;;60.60;38.67;;;;;;;;;;5055068;28;20476;-72
2022/12/10 13:52:51;;;;;;;63.70;36.28;;;;;;;;;;5039397;28;20035;-71
2022/12/10 13:55:32;;;;;;;66.15;37.58;;;;;;;;;;5038254;28;20017;-69
2022/12/10 13:58:16;;;;;;;62.83;36.63;;;;;;;;;;5047937;28;20025;-70
2022/12/10 14:00:56;;;;;;;61.75;37.88;;;;;;;;;;5041492;28;20032;-71
2022/12/10 14:03:38;;;;;;;69.68;38.30;;;;;;;;;;5045029;28;20803;-72
2022/12/10 14:06:13;;;;;;;69.35;39.17;;;;;;;;;;5039720;28;20492;-72
2022/12/10 14:08:40;;;;;;;70.78;41.33;;;;;;;;;;5047653;28;20036;-72
2022/12/10 14:11:09;;;;;;;68.05;41.17;;;;;;;;;;5057793;28;20042;-73
2022/12/10 14:13:39;;;;;;;67.07;39.55;;;;;;;;;;5049373;28;20094;-72
2022/12/10 14:16:05;;;;;;;74.82;41.95;;;;;;;;;;5053889;28;20055;-71
2022/12/10 14:18:31;;;;;;;67.72;40.88;;;;;;;;;;5051769;28;20098;-71
2022/12/10 14:20:57;;;;;;;70.88;42.25;;;;;;;;;;5044679;28;20052;-71
2022/12/10 14:23:37;;;;;;;76.50;42.88;;;;;;;;;;5040775;28;20013;-71
2022/12/10 14:26:09;;;;;;;71.68;41.30;;;;;;;;;;5051592;28;20025;-71
2022/12/10 14:28:38;;;;;;;72.55;40.45;;;;;;;;;;5037525;28;20056;-71
2022/12/10 14:31:05;;;;;;;75.47;39.60;;;;;;;;;;5044685;28;20479;-71
2022/12/10 14:33:31;;;;;;;77.22;41.72;;;;;;;;;;5030907;28;20354;-71
2022/12/10 14:35:56;;;;;;;67.70;39.53;;;;;;;;;;5015741;28;20023;-71
2022/12/10 14:38:32;;;;;;;72.50;41.05;;;;;;;;;;5018028;28;20934;-71
2022/12/10 14:40:58;;;;;;;67.90;39.53;;;;;;;;;;5025866;28;20048;-72